sensor_id;sensor_type;location;lat;lon;timestamp;P1;durP1;ratioP1;P2;durP2;ratioP2
73266;SDS011;61495;53.400;7.608;2022-11-15T00:01:20;27.38;;;12.85;;
73266;SDS011;61495;53.400;7.608;2022-11-15T00:03:46;25.05;;;12.45;;
73266;SDS011;61495;53.400;7.608;2022-11-15T00:06:15;26.85;;;13.52;;
73266;SDS011;61495;53.400;7.608;2022-11-15T00:08:40;25.08;;;11.77;;
73266;SDS011;61495;53.400;7.608;2022-11-15T00:11:06;24.92;;;12.80;;
73266;SDS011;61495;53.400;7.608;2022-11-15T00:13:31;24.60;;;12.00;;
73266;SDS011;61495;53.400;7.608;2022-11-15T00:15:57;24.42;;;11.88;;
73266;SDS011;61495;53.400;7.608;2022-11-15T00:18:24;23.50;;;11.93;;
73266;SDS011;61495;53.400;7.608;2022-11-15T00:20:49;22.83;;;11.77;;
73266;SDS011;61495;53.400;7.608;2022-11-15T00:23:14;27.50;;;13.85;;
73266;SDS011;61495;53.400;7.608;2022-11-15T00:25:40;23.30;;;12.35;;
73266;SDS011;61495;53.400;7.608;2022-11-15T00:28:06;24.23;;;12.20;;
73266;SDS011;61495;53.400;7.608;2022-11-15T00:30:31;23.42;;;12.52;;
73266;SDS011;61495;53.400;7.608;2022-11-15T00:32:56;27.38;;;13.35;;
73266;SDS011;61495;53.400;7.608;2022-11-15T00:35:27;28.35;;;11.57;;
73266;SDS011;61495;53.400;7.608;2022-11-15T00:37:52;24.27;;;12.23;;
73266;SDS011;61495;53.400;7.608;2022-11-15T00:40:18;24.65;;;12.98;;
73266;SDS011;61495;53.400;7.608;2022-11-15T00:42:43;21.58;;;12.90;;
73266;SDS011;61495;53.400;7.608;2022-11-15T00:45:09;23.15;;;12.25;;
73266;SDS011;61495;53.400;7.608;2022-11-15T00:47:34;21.38;;;11.25;;
73266;SDS011;61495;53.400;7.608;2022-11-15T00:50:00;24.02;;;12.77;;
73266;SDS011;61495;53.400;7.608;2022-11-15T00:52:25;24.65;;;11.98;;
73266;SDS011;61495;53.400;7.608;2022-11-15T00:54:51;27.08;;;12.52;;
73266;SDS011;61495;53.400;7.608;2022-11-15T00:57:17;25.95;;;12.15;;
73266;SDS011;61495;53.400;7.608;2022-11-15T00:59:42;27.75;;;13.48;;
73266;SDS011;61495;53.400;7.608;2022-11-15T01:02:07;27.45;;;12.65;;
73266;SDS011;61495;53.400;7.608;2022-11-15T01:04:33;22.38;;;11.73;;
73266;SDS011;61495;53.400;7.608;2022-11-15T01:06:58;24.58;;;12.57;;
73266;SDS011;61495;53.400;7.608;2022-11-15T01:09:24;24.92;;;11.90;;
73266;SDS011;61495;53.400;7.608;2022-11-15T01:11:49;24.65;;;12.20;;
73266;SDS011;61495;53.400;7.608;2022-11-15T01:14:14;22.85;;;11.57;;
73266;SDS011;61495;53.400;7.608;2022-11-15T01:16:40;24.15;;;11.93;;
73266;SDS011;61495;53.400;7.608;2022-11-15T01:19:05;23.95;;;11.25;;
73266;SDS011;61495;53.400;7.608;2022-11-15T01:21:31;23.58;;;11.68;;
73266;SDS011;61495;53.400;7.608;2022-11-15T01:23:56;22.83;;;11.82;;
73266;SDS011;61495;53.400;7.608;2022-11-15T01:26:22;24.38;;;11.95;;
73266;SDS011;61495;53.400;7.608;2022-11-15T01:28:48;23.77;;;12.85;;
73266;SDS011;61495;53.400;7.608;2022-11-15T01:31:15;25.25;;;11.57;;
73266;SDS011;61495;53.400;7.608;2022-11-15T01:33:45;23.30;;;11.35;;
73266;SDS011;61495;53.400;7.608;2022-11-15T01:36:12;24.73;;;12.48;;
73266;SDS011;61495;53.400;7.608;2022-11-15T01:38:39;22.02;;;11.50;;
73266;SDS011;61495;53.400;7.608;2022-11-15T01:41:04;19.73;;;11.65;;
73266;SDS011;61495;53.400;7.608;2022-11-15T01:43:32;24.13;;;11.23;;
73266;SDS011;61495;53.400;7.608;2022-11-15T01:46:21;26.08;;;12.25;;
73266;SDS011;61495;53.400;7.608;2022-11-15T01:48:50;24.17;;;12.27;;
73266;SDS011;61495;53.400;7.608;2022-11-15T01:51:18;26.92;;;12.77;;
73266;SDS011;61495;53.400;7.608;2022-11-15T01:53:47;20.67;;;12.38;;
73266;SDS011;61495;53.400;7.608;2022-11-15T01:56:20;23.63;;;10.82;;
73266;SDS011;61495;53.400;7.608;2022-11-15T01:58:50;22.00;;;10.80;;
73266;SDS011;61495;53.400;7.608;2022-11-15T02:01:18;24.13;;;12.13;;
73266;SDS011;61495;53.400;7.608;2022-11-15T02:03:51;21.17;;;11.38;;
73266;SDS011;61495;53.400;7.608;2022-11-15T02:08:47;19.80;;;11.23;;
73266;SDS011;61495;53.400;7.608;2022-11-15T02:11:14;21.83;;;10.40;;
73266;SDS011;61495;53.400;7.608;2022-11-15T02:13:39;21.85;;;11.13;;
73266;SDS011;61495;53.400;7.608;2022-11-15T02:22:04;22.27;;;11.15;;
73266;SDS011;61495;53.400;7.608;2022-11-15T02:36:01;25.83;;;12.25;;
73266;SDS011;61495;53.400;7.608;2022-11-15T02:41:25;23.50;;;12.05;;
73266;SDS011;61495;53.400;7.608;2022-11-15T02:44:02;22.02;;;11.10;;
73266;SDS011;61495;53.400;7.608;2022-11-15T02:46:35;24.50;;;12.00;;
73266;SDS011;61495;53.400;7.608;2022-11-15T02:49:24;23.05;;;10.95;;
73266;SDS011;61495;53.400;7.608;2022-11-15T02:51:53;20.80;;;10.07;;
73266;SDS011;61495;53.400;7.608;2022-11-15T02:54:24;19.77;;;10.45;;
73266;SDS011;61495;53.400;7.608;2022-11-15T02:56:55;21.27;;;11.45;;
73266;SDS011;61495;53.400;7.608;2022-11-15T02:59:32;20.00;;;10.68;;
73266;SDS011;61495;53.400;7.608;2022-11-15T03:09:57;21.40;;;11.13;;
73266;SDS011;61495;53.400;7.608;2022-11-15T03:13:07;23.10;;;11.85;;
73266;SDS011;61495;53.400;7.608;2022-11-15T03:15:41;22.60;;;10.70;;
73266;SDS011;61495;53.400;7.608;2022-11-15T03:18:21;20.90;;;10.38;;
73266;SDS011;61495;53.400;7.608;2022-11-15T03:20:54;24.02;;;11.93;;
73266;SDS011;61495;53.400;7.608;2022-11-15T03:23:22;24.70;;;12.13;;
73266;SDS011;61495;53.400;7.608;2022-11-15T03:25:50;20.50;;;11.60;;
73266;SDS011;61495;53.400;7.608;2022-11-15T03:28:21;23.35;;;11.48;;
73266;SDS011;61495;53.400;7.608;2022-11-15T03:30:51;20.38;;;11.65;;
73266;SDS011;61495;53.400;7.608;2022-11-15T03:33:20;21.33;;;12.15;;
73266;SDS011;61495;53.400;7.608;2022-11-15T03:35:47;21.80;;;10.95;;
73266;SDS011;61495;53.400;7.608;2022-11-15T03:38:25;24.30;;;12.00;;
73266;SDS011;61495;53.400;7.608;2022-11-15T03:40:58;20.70;;;10.75;;
73266;SDS011;61495;53.400;7.608;2022-11-15T03:46:01;22.83;;;11.15;;
73266;SDS011;61495;53.400;7.608;2022-11-15T03:48:30;24.30;;;10.85;;
73266;SDS011;61495;53.400;7.608;2022-11-15T03:51:00;21.77;;;11.18;;
73266;SDS011;61495;53.400;7.608;2022-11-15T03:53:27;22.75;;;11.75;;
73266;SDS011;61495;53.400;7.608;2022-11-15T03:55:53;22.58;;;11.80;;
73266;SDS011;61495;53.400;7.608;2022-11-15T03:58:18;23.85;;;11.27;;
73266;SDS011;61495;53.400;7.608;2022-11-15T04:00:44;25.48;;;12.30;;
73266;SDS011;61495;53.400;7.608;2022-11-15T04:03:09;23.30;;;11.13;;
73266;SDS011;61495;53.400;7.608;2022-11-15T04:05:35;27.13;;;12.13;;
73266;SDS011;61495;53.400;7.608;2022-11-15T04:08:00;23.25;;;11.73;;
73266;SDS011;61495;53.400;7.608;2022-11-15T04:10:25;23.98;;;11.70;;
73266;SDS011;61495;53.400;7.608;2022-11-15T04:12:51;22.60;;;10.75;;
73266;SDS011;61495;53.400;7.608;2022-11-15T04:15:18;25.65;;;11.48;;
73266;SDS011;61495;53.400;7.608;2022-11-15T04:17:50;23.58;;;12.38;;
73266;SDS011;61495;53.400;7.608;2022-11-15T04:23:03;24.27;;;12.05;;
73266;SDS011;61495;53.400;7.608;2022-11-15T04:25:52;28.60;;;11.95;;
73266;SDS011;61495;53.400;7.608;2022-11-15T04:28:19;32.03;;;12.35;;
73266;SDS011;61495;53.400;7.608;2022-11-15T04:30:45;22.92;;;11.55;;
73266;SDS011;61495;53.400;7.608;2022-11-15T04:33:11;24.00;;;11.95;;
73266;SDS011;61495;53.400;7.608;2022-11-15T04:35:36;24.17;;;11.13;;
73266;SDS011;61495;53.400;7.608;2022-11-15T04:38:03;28.55;;;11.38;;
73266;SDS011;61495;53.400;7.608;2022-11-15T04:40:29;26.70;;;11.52;;
73266;SDS011;61495;53.400;7.608;2022-11-15T04:42:55;23.40;;;11.38;;
73266;SDS011;61495;53.400;7.608;2022-11-15T04:45:22;26.30;;;12.98;;
73266;SDS011;61495;53.400;7.608;2022-11-15T04:47:47;28.35;;;11.80;;
73266;SDS011;61495;53.400;7.608;2022-11-15T04:50:13;27.58;;;11.25;;
73266;SDS011;61495;53.400;7.608;2022-11-15T04:52:41;29.00;;;12.13;;
73266;SDS011;61495;53.400;7.608;2022-11-15T04:55:15;28.00;;;12.38;;
73266;SDS011;61495;53.400;7.608;2022-11-15T04:57:40;24.65;;;12.25;;
73266;SDS011;61495;53.400;7.608;2022-11-15T05:00:06;26.85;;;12.45;;
73266;SDS011;61495;53.400;7.608;2022-11-15T05:02:34;21.15;;;12.48;;
73266;SDS011;61495;53.400;7.608;2022-11-15T05:05:18;29.05;;;13.18;;
73266;SDS011;61495;53.400;7.608;2022-11-15T05:07:44;24.67;;;11.25;;
73266;SDS011;61495;53.400;7.608;2022-11-15T05:10:10;25.33;;;12.68;;
73266;SDS011;61495;53.400;7.608;2022-11-15T05:12:35;24.27;;;11.00;;
73266;SDS011;61495;53.400;7.608;2022-11-15T05:15:02;31.13;;;12.50;;
73266;SDS011;61495;53.400;7.608;2022-11-15T05:17:28;24.65;;;11.63;;
73266;SDS011;61495;53.400;7.608;2022-11-15T05:19:53;24.20;;;11.50;;
73266;SDS011;61495;53.400;7.608;2022-11-15T05:22:19;21.60;;;10.95;;
73266;SDS011;61495;53.400;7.608;2022-11-15T05:24:45;25.48;;;11.32;;
73266;SDS011;61495;53.400;7.608;2022-11-15T05:27:10;33.30;;;13.50;;
73266;SDS011;61495;53.400;7.608;2022-11-15T05:29:36;24.50;;;11.73;;
73266;SDS011;61495;53.400;7.608;2022-11-15T05:32:02;27.48;;;11.88;;
73266;SDS011;61495;53.400;7.608;2022-11-15T05:34:30;24.30;;;11.63;;
73266;SDS011;61495;53.400;7.608;2022-11-15T05:36:55;25.50;;;12.73;;
73266;SDS011;61495;53.400;7.608;2022-11-15T05:39:21;26.13;;;11.93;;
73266;SDS011;61495;53.400;7.608;2022-11-15T05:41:47;22.65;;;12.48;;
73266;SDS011;61495;53.400;7.608;2022-11-15T05:44:16;21.77;;;12.40;;
73266;SDS011;61495;53.400;7.608;2022-11-15T05:46:44;24.33;;;11.93;;
73266;SDS011;61495;53.400;7.608;2022-11-15T05:49:12;22.80;;;10.93;;
73266;SDS011;61495;53.400;7.608;2022-11-15T05:51:41;24.95;;;11.73;;
73266;SDS011;61495;53.400;7.608;2022-11-15T05:54:09;24.45;;;11.43;;
73266;SDS011;61495;53.400;7.608;2022-11-15T05:56:36;28.65;;;12.07;;
73266;SDS011;61495;53.400;7.608;2022-11-15T05:59:01;24.70;;;12.13;;
73266;SDS011;61495;53.400;7.608;2022-11-15T06:01:27;27.10;;;11.90;;
73266;SDS011;61495;53.400;7.608;2022-11-15T06:03:53;29.00;;;12.45;;
73266;SDS011;61495;53.400;7.608;2022-11-15T06:06:18;29.30;;;13.60;;
73266;SDS011;61495;53.400;7.608;2022-11-15T06:08:44;23.67;;;11.50;;
73266;SDS011;61495;53.400;7.608;2022-11-15T06:11:09;27.27;;;11.48;;
73266;SDS011;61495;53.400;7.608;2022-11-15T06:13:34;30.05;;;14.43;;
73266;SDS011;61495;53.400;7.608;2022-11-15T06:16:00;25.65;;;12.45;;
73266;SDS011;61495;53.400;7.608;2022-11-15T06:18:26;24.33;;;11.80;;
73266;SDS011;61495;53.400;7.608;2022-11-15T06:20:51;28.00;;;12.38;;
73266;SDS011;61495;53.400;7.608;2022-11-15T06:23:17;26.13;;;11.73;;
73266;SDS011;61495;53.400;7.608;2022-11-15T06:25:42;27.92;;;12.82;;
73266;SDS011;61495;53.400;7.608;2022-11-15T06:28:08;30.00;;;13.10;;
73266;SDS011;61495;53.400;7.608;2022-11-15T06:30:34;26.55;;;12.13;;
73266;SDS011;61495;53.400;7.608;2022-11-15T06:33:03;29.58;;;12.07;;
73266;SDS011;61495;53.400;7.608;2022-11-15T06:35:30;30.83;;;12.82;;
73266;SDS011;61495;53.400;7.608;2022-11-15T06:38:02;30.15;;;12.25;;
73266;SDS011;61495;53.400;7.608;2022-11-15T06:40:29;27.88;;;12.13;;
73266;SDS011;61495;53.400;7.608;2022-11-15T06:42:58;26.95;;;11.65;;
73266;SDS011;61495;53.400;7.608;2022-11-15T06:45:24;28.92;;;13.05;;
73266;SDS011;61495;53.400;7.608;2022-11-15T06:47:50;23.75;;;12.57;;
73266;SDS011;61495;53.400;7.608;2022-11-15T06:50:15;30.02;;;12.57;;
73266;SDS011;61495;53.400;7.608;2022-11-15T06:52:41;26.05;;;12.82;;
73266;SDS011;61495;53.400;7.608;2022-11-15T06:55:06;30.00;;;12.60;;
73266;SDS011;61495;53.400;7.608;2022-11-15T06:57:33;29.10;;;11.57;;
73266;SDS011;61495;53.400;7.608;2022-11-15T06:59:58;27.00;;;12.07;;
73266;SDS011;61495;53.400;7.608;2022-11-15T07:02:23;29.05;;;12.63;;
73266;SDS011;61495;53.400;7.608;2022-11-15T07:04:49;32.58;;;12.80;;
73266;SDS011;61495;53.400;7.608;2022-11-15T07:07:14;26.52;;;12.23;;
73266;SDS011;61495;53.400;7.608;2022-11-15T07:09:39;27.27;;;12.40;;
73266;SDS011;61495;53.400;7.608;2022-11-15T07:12:05;24.73;;;12.05;;
73266;SDS011;61495;53.400;7.608;2022-11-15T07:14:30;27.63;;;14.00;;
73266;SDS011;61495;53.400;7.608;2022-11-15T07:16:56;24.80;;;12.10;;
73266;SDS011;61495;53.400;7.608;2022-11-15T07:19:21;27.92;;;12.85;;
73266;SDS011;61495;53.400;7.608;2022-11-15T07:21:47;23.20;;;11.82;;
73266;SDS011;61495;53.400;7.608;2022-11-15T07:24:12;27.25;;;10.95;;
73266;SDS011;61495;53.400;7.608;2022-11-15T07:26:37;29.23;;;12.52;;
73266;SDS011;61495;53.400;7.608;2022-11-15T07:29:03;26.75;;;13.52;;
73266;SDS011;61495;53.400;7.608;2022-11-15T07:31:28;30.45;;;12.13;;
73266;SDS011;61495;53.400;7.608;2022-11-15T07:33:53;27.73;;;11.48;;
73266;SDS011;61495;53.400;7.608;2022-11-15T07:36:19;23.63;;;11.20;;
73266;SDS011;61495;53.400;7.608;2022-11-15T07:38:45;28.50;;;12.48;;
73266;SDS011;61495;53.400;7.608;2022-11-15T07:41:10;29.40;;;11.25;;
73266;SDS011;61495;53.400;7.608;2022-11-15T07:43:36;26.10;;;11.57;;
73266;SDS011;61495;53.400;7.608;2022-11-15T07:46:07;28.00;;;11.80;;
73266;SDS011;61495;53.400;7.608;2022-11-15T07:48:34;22.60;;;11.73;;
73266;SDS011;61495;53.400;7.608;2022-11-15T07:51:01;29.65;;;12.73;;
73266;SDS011;61495;53.400;7.608;2022-11-15T07:53:26;26.80;;;11.20;;
73266;SDS011;61495;53.400;7.608;2022-11-15T07:55:52;26.23;;;11.00;;
73266;SDS011;61495;53.400;7.608;2022-11-15T07:58:18;29.33;;;12.55;;
73266;SDS011;61495;53.400;7.608;2022-11-15T08:00:44;25.60;;;11.20;;
73266;SDS011;61495;53.400;7.608;2022-11-15T08:03:10;27.08;;;11.15;;
73266;SDS011;61495;53.400;7.608;2022-11-15T08:05:40;25.73;;;12.65;;
73266;SDS011;61495;53.400;7.608;2022-11-15T08:08:07;24.10;;;10.32;;
73266;SDS011;61495;53.400;7.608;2022-11-15T08:10:34;21.35;;;10.65;;
73266;SDS011;61495;53.400;7.608;2022-11-15T08:13:01;21.88;;;10.50;;
73266;SDS011;61495;53.400;7.608;2022-11-15T08:15:28;25.33;;;11.70;;
73266;SDS011;61495;53.400;7.608;2022-11-15T08:17:57;25.45;;;10.25;;
73266;SDS011;61495;53.400;7.608;2022-11-15T08:20:25;21.25;;;10.20;;
73266;SDS011;61495;53.400;7.608;2022-11-15T08:22:54;21.27;;;10.13;;
73266;SDS011;61495;53.400;7.608;2022-11-15T08:25:20;24.02;;;11.00;;
73266;SDS011;61495;53.400;7.608;2022-11-15T08:27:45;19.67;;;11.00;;
73266;SDS011;61495;53.400;7.608;2022-11-15T08:30:11;22.63;;;10.60;;
73266;SDS011;61495;53.400;7.608;2022-11-15T08:32:36;23.77;;;11.50;;
73266;SDS011;61495;53.400;7.608;2022-11-15T08:35:02;20.38;;;10.02;;
73266;SDS011;61495;53.400;7.608;2022-11-15T08:37:27;21.80;;;11.00;;
73266;SDS011;61495;53.400;7.608;2022-11-15T08:39:53;21.25;;;10.25;;
73266;SDS011;61495;53.400;7.608;2022-11-15T08:42:18;20.30;;;10.35;;
73266;SDS011;61495;53.400;7.608;2022-11-15T08:44:43;20.40;;;10.15;;
73266;SDS011;61495;53.400;7.608;2022-11-15T08:47:10;20.17;;;9.88;;
73266;SDS011;61495;53.400;7.608;2022-11-15T08:49:37;20.00;;;9.90;;
73266;SDS011;61495;53.400;7.608;2022-11-15T08:52:02;19.30;;;9.68;;
73266;SDS011;61495;53.400;7.608;2022-11-15T08:54:28;23.23;;;10.77;;
73266;SDS011;61495;53.400;7.608;2022-11-15T08:56:53;18.30;;;10.63;;
73266;SDS011;61495;53.400;7.608;2022-11-15T08:59:18;21.98;;;10.05;;
73266;SDS011;61495;53.400;7.608;2022-11-15T09:01:44;20.02;;;10.32;;
73266;SDS011;61495;53.400;7.608;2022-11-15T09:04:09;19.88;;;9.55;;
73266;SDS011;61495;53.400;7.608;2022-11-15T09:06:35;20.60;;;10.30;;
73266;SDS011;61495;53.400;7.608;2022-11-15T09:09:01;20.60;;;9.00;;
73266;SDS011;61495;53.400;7.608;2022-11-15T09:11:27;19.92;;;10.35;;
73266;SDS011;61495;53.400;7.608;2022-11-15T09:13:52;18.80;;;9.77;;
73266;SDS011;61495;53.400;7.608;2022-11-15T09:16:18;20.05;;;10.43;;
73266;SDS011;61495;53.400;7.608;2022-11-15T09:18:43;21.10;;;10.05;;
73266;SDS011;61495;53.400;7.608;2022-11-15T09:21:09;18.27;;;10.40;;
73266;SDS011;61495;53.400;7.608;2022-11-15T09:23:34;17.80;;;8.60;;
73266;SDS011;61495;53.400;7.608;2022-11-15T09:26:00;17.08;;;9.15;;
73266;SDS011;61495;53.400;7.608;2022-11-15T09:28:27;23.30;;;10.73;;
73266;SDS011;61495;53.400;7.608;2022-11-15T09:31:00;18.92;;;9.98;;
73266;SDS011;61495;53.400;7.608;2022-11-15T09:33:27;18.83;;;10.27;;
73266;SDS011;61495;53.400;7.608;2022-11-15T09:35:52;20.25;;;9.52;;
73266;SDS011;61495;53.400;7.608;2022-11-15T09:38:18;18.23;;;9.82;;
73266;SDS011;61495;53.400;7.608;2022-11-15T09:40:44;19.77;;;8.93;;
73266;SDS011;61495;53.400;7.608;2022-11-15T09:45:53;20.13;;;9.70;;
73266;SDS011;61495;53.400;7.608;2022-11-15T09:48:48;18.33;;;9.40;;
73266;SDS011;61495;53.400;7.608;2022-11-15T09:51:52;19.33;;;9.02;;
73266;SDS011;61495;53.400;7.608;2022-11-15T09:54:31;18.92;;;9.82;;
73266;SDS011;61495;53.400;7.608;2022-11-15T09:59:51;19.02;;;9.38;;
73266;SDS011;61495;53.400;7.608;2022-11-15T10:05:01;20.00;;;10.15;;
73266;SDS011;61495;53.400;7.608;2022-11-15T10:10:02;16.33;;;8.60;;
73266;SDS011;61495;53.400;7.608;2022-11-15T10:12:43;16.90;;;9.38;;
73266;SDS011;61495;53.400;7.608;2022-11-15T10:15:14;16.55;;;8.70;;
73266;SDS011;61495;53.400;7.608;2022-11-15T10:20:33;15.40;;;8.05;;
73266;SDS011;61495;53.400;7.608;2022-11-15T10:23:10;16.25;;;9.18;;
73266;SDS011;61495;53.400;7.608;2022-11-15T10:25:38;14.98;;;8.90;;
73266;SDS011;61495;53.400;7.608;2022-11-15T10:32:59;13.98;;;7.70;;
73266;SDS011;61495;53.400;7.608;2022-11-15T10:35:37;14.98;;;8.10;;
73266;SDS011;61495;53.400;7.608;2022-11-15T10:38:06;14.05;;;7.90;;
73266;SDS011;61495;53.400;7.608;2022-11-15T10:40:32;15.18;;;7.65;;
73266;SDS011;61495;53.400;7.608;2022-11-15T10:45:43;16.55;;;8.13;;
73266;SDS011;61495;53.400;7.608;2022-11-15T10:50:38;12.73;;;7.45;;
73266;SDS011;61495;53.400;7.608;2022-11-15T10:56:12;14.10;;;7.72;;
73266;SDS011;61495;53.400;7.608;2022-11-15T10:58:43;16.40;;;7.90;;
73266;SDS011;61495;53.400;7.608;2022-11-15T11:01:19;14.15;;;8.20;;
73266;SDS011;61495;53.400;7.608;2022-11-15T11:03:58;15.18;;;8.20;;
73266;SDS011;61495;53.400;7.608;2022-11-15T11:06:26;14.85;;;8.18;;
73266;SDS011;61495;53.400;7.608;2022-11-15T11:09:00;15.13;;;8.13;;
73266;SDS011;61495;53.400;7.608;2022-11-15T11:11:43;15.10;;;7.78;;
73266;SDS011;61495;53.400;7.608;2022-11-15T11:14:12;16.58;;;8.68;;
73266;SDS011;61495;53.400;7.608;2022-11-15T11:16:44;14.52;;;8.32;;
73266;SDS011;61495;53.400;7.608;2022-11-15T11:24:44;15.30;;;8.50;;
73266;SDS011;61495;53.400;7.608;2022-11-15T11:27:35;14.88;;;8.32;;
73266;SDS011;61495;53.400;7.608;2022-11-15T11:46:59;14.82;;;8.75;;
73266;SDS011;61495;53.400;7.608;2022-11-15T11:49:46;15.88;;;8.57;;
73266;SDS011;61495;53.400;7.608;2022-11-15T11:55:12;15.45;;;9.02;;
73266;SDS011;61495;53.400;7.608;2022-11-15T12:00:38;12.52;;;7.70;;
73266;SDS011;61495;53.400;7.608;2022-11-15T12:03:20;14.85;;;8.88;;
73266;SDS011;61495;53.400;7.608;2022-11-15T12:05:57;14.20;;;7.88;;
73266;SDS011;61495;53.400;7.608;2022-11-15T12:08:31;14.07;;;8.65;;
73266;SDS011;61495;53.400;7.608;2022-11-15T12:13:57;13.77;;;7.68;;
73266;SDS011;61495;53.400;7.608;2022-11-15T12:16:30;14.00;;;8.18;;
73266;SDS011;61495;53.400;7.608;2022-11-15T12:19:01;14.93;;;8.70;;
73266;SDS011;61495;53.400;7.608;2022-11-15T12:26:50;13.93;;;9.23;;
73266;SDS011;61495;53.400;7.608;2022-11-15T12:29:29;15.48;;;8.65;;
73266;SDS011;61495;53.400;7.608;2022-11-15T12:32:00;14.45;;;8.80;;
73266;SDS011;61495;53.400;7.608;2022-11-15T12:34:29;13.57;;;8.40;;
73266;SDS011;61495;53.400;7.608;2022-11-15T12:40:21;15.23;;;8.73;;
73266;SDS011;61495;53.400;7.608;2022-11-15T12:45:41;12.48;;;7.32;;
73266;SDS011;61495;53.400;7.608;2022-11-15T13:02:15;12.45;;;7.18;;
73266;SDS011;61495;53.400;7.608;2022-11-15T13:12:02;11.52;;;6.95;;
73266;SDS011;61495;53.400;7.608;2022-11-15T13:14:37;13.02;;;7.15;;
73266;SDS011;61495;53.400;7.608;2022-11-15T13:17:30;8.60;;;5.75;;
73266;SDS011;61495;53.400;7.608;2022-11-15T13:30:34;10.68;;;5.78;;
73266;SDS011;61495;53.400;7.608;2022-11-15T13:33:07;9.13;;;6.50;;
73266;SDS011;61495;53.400;7.608;2022-11-15T13:35:38;8.63;;;5.82;;
73266;SDS011;61495;53.400;7.608;2022-11-15T13:38:05;8.93;;;5.82;;
73266;SDS011;61495;53.400;7.608;2022-11-15T13:40:35;10.07;;;6.10;;
73266;SDS011;61495;53.400;7.608;2022-11-15T13:45:55;8.40;;;5.63;;
73266;SDS011;61495;53.400;7.608;2022-11-15T13:48:32;6.70;;;4.85;;
73266;SDS011;61495;53.400;7.608;2022-11-15T13:51:04;9.68;;;5.53;;
73266;SDS011;61495;53.400;7.608;2022-11-15T13:53:38;7.90;;;5.03;;
73266;SDS011;61495;53.400;7.608;2022-11-15T13:56:06;8.52;;;5.57;;
73266;SDS011;61495;53.400;7.608;2022-11-15T13:58:32;7.53;;;5.05;;
73266;SDS011;61495;53.400;7.608;2022-11-15T14:01:02;8.20;;;4.93;;
73266;SDS011;61495;53.400;7.608;2022-11-15T14:03:30;8.93;;;5.45;;
73266;SDS011;61495;53.400;7.608;2022-11-15T14:08:28;7.82;;;5.00;;
73266;SDS011;61495;53.400;7.608;2022-11-15T14:11:07;8.75;;;5.90;;
73266;SDS011;61495;53.400;7.608;2022-11-15T14:13:41;8.88;;;5.22;;
73266;SDS011;61495;53.400;7.608;2022-11-15T14:16:12;8.52;;;5.85;;
73266;SDS011;61495;53.400;7.608;2022-11-15T14:21:11;7.72;;;5.22;;
73266;SDS011;61495;53.400;7.608;2022-11-15T14:23:37;7.20;;;5.15;;
73266;SDS011;61495;53.400;7.608;2022-11-15T14:26:03;6.35;;;4.47;;
73266;SDS011;61495;53.400;7.608;2022-11-15T14:28:29;5.05;;;3.50;;
73266;SDS011;61495;53.400;7.608;2022-11-15T14:30:58;6.95;;;3.95;;
73266;SDS011;61495;53.400;7.608;2022-11-15T14:35:57;5.65;;;3.70;;
73266;SDS011;61495;53.400;7.608;2022-11-15T14:38:27;5.50;;;3.60;;
73266;SDS011;61495;53.400;7.608;2022-11-15T14:40:52;5.25;;;3.40;;
73266;SDS011;61495;53.400;7.608;2022-11-15T14:43:19;5.10;;;3.08;;
73266;SDS011;61495;53.400;7.608;2022-11-15T14:45:45;6.50;;;4.03;;
73266;SDS011;61495;53.400;7.608;2022-11-15T14:48:10;6.63;;;4.10;;
73266;SDS011;61495;53.400;7.608;2022-11-15T14:50:36;8.73;;;4.32;;
73266;SDS011;61495;53.400;7.608;2022-11-15T14:53:02;9.52;;;4.70;;
73266;SDS011;61495;53.400;7.608;2022-11-15T14:55:32;6.25;;;3.90;;
73266;SDS011;61495;53.400;7.608;2022-11-15T14:58:03;6.90;;;4.30;;
73266;SDS011;61495;53.400;7.608;2022-11-15T15:00:32;6.93;;;4.15;;
73266;SDS011;61495;53.400;7.608;2022-11-15T15:02:58;8.27;;;4.30;;
73266;SDS011;61495;53.400;7.608;2022-11-15T15:05:25;6.75;;;4.07;;
73266;SDS011;61495;53.400;7.608;2022-11-15T15:07:54;6.35;;;4.47;;
73266;SDS011;61495;53.400;7.608;2022-11-15T15:10:20;6.55;;;4.13;;
73266;SDS011;61495;53.400;7.608;2022-11-15T15:12:46;6.72;;;4.50;;
73266;SDS011;61495;53.400;7.608;2022-11-15T15:15:16;6.00;;;4.13;;
73266;SDS011;61495;53.400;7.608;2022-11-15T15:17:46;6.75;;;4.15;;
73266;SDS011;61495;53.400;7.608;2022-11-15T15:20:12;7.55;;;4.35;;
73266;SDS011;61495;53.400;7.608;2022-11-15T15:22:37;7.15;;;4.15;;
73266;SDS011;61495;53.400;7.608;2022-11-15T15:25:09;5.88;;;3.75;;
73266;SDS011;61495;53.400;7.608;2022-11-15T15:27:45;7.07;;;4.18;;
73266;SDS011;61495;53.400;7.608;2022-11-15T15:30:11;7.57;;;4.10;;
73266;SDS011;61495;53.400;7.608;2022-11-15T15:32:37;6.38;;;3.97;;
73266;SDS011;61495;53.400;7.608;2022-11-15T15:35:02;6.10;;;3.97;;
73266;SDS011;61495;53.400;7.608;2022-11-15T15:37:27;5.72;;;3.97;;
73266;SDS011;61495;53.400;7.608;2022-11-15T15:39:55;6.05;;;4.10;;
73266;SDS011;61495;53.400;7.608;2022-11-15T15:42:21;5.57;;;3.35;;
73266;SDS011;61495;53.400;7.608;2022-11-15T15:44:48;6.40;;;3.50;;
73266;SDS011;61495;53.400;7.608;2022-11-15T15:47:15;6.13;;;3.55;;
73266;SDS011;61495;53.400;7.608;2022-11-15T15:49:44;5.95;;;3.70;;
73266;SDS011;61495;53.400;7.608;2022-11-15T15:52:10;6.05;;;3.90;;
73266;SDS011;61495;53.400;7.608;2022-11-15T15:54:36;5.47;;;3.47;;
73266;SDS011;61495;53.400;7.608;2022-11-15T15:57:02;6.40;;;3.60;;
73266;SDS011;61495;53.400;7.608;2022-11-15T15:59:27;6.50;;;3.72;;
73266;SDS011;61495;53.400;7.608;2022-11-15T16:01:53;6.40;;;3.40;;
73266;SDS011;61495;53.400;7.608;2022-11-15T16:04:18;5.28;;;3.60;;
73266;SDS011;61495;53.400;7.608;2022-11-15T16:06:43;6.05;;;3.92;;
73266;SDS011;61495;53.400;7.608;2022-11-15T16:09:13;5.45;;;3.83;;
73266;SDS011;61495;53.400;7.608;2022-11-15T16:11:40;6.50;;;3.85;;
73266;SDS011;61495;53.400;7.608;2022-11-15T16:14:06;7.00;;;3.60;;
73266;SDS011;61495;53.400;7.608;2022-11-15T16:16:32;6.05;;;3.45;;
73266;SDS011;61495;53.400;7.608;2022-11-15T16:18:59;6.80;;;3.88;;
73266;SDS011;61495;53.400;7.608;2022-11-15T16:21:25;5.72;;;3.47;;
73266;SDS011;61495;53.400;7.608;2022-11-15T16:23:51;5.97;;;3.95;;
73266;SDS011;61495;53.400;7.608;2022-11-15T16:26:27;6.60;;;4.22;;
73266;SDS011;61495;53.400;7.608;2022-11-15T16:28:54;5.63;;;3.50;;
73266;SDS011;61495;53.400;7.608;2022-11-15T16:31:19;6.50;;;3.95;;
73266;SDS011;61495;53.400;7.608;2022-11-15T16:33:48;6.38;;;3.63;;
73266;SDS011;61495;53.400;7.608;2022-11-15T16:36:20;6.72;;;4.18;;
73266;SDS011;61495;53.400;7.608;2022-11-15T16:38:47;5.35;;;3.65;;
73266;SDS011;61495;53.400;7.608;2022-11-15T16:41:13;6.72;;;4.13;;
73266;SDS011;61495;53.400;7.608;2022-11-15T16:43:39;6.88;;;3.95;;
73266;SDS011;61495;53.400;7.608;2022-11-15T16:48:59;5.53;;;3.85;;
73266;SDS011;61495;53.400;7.608;2022-11-15T16:51:25;7.90;;;4.05;;
73266;SDS011;61495;53.400;7.608;2022-11-15T16:53:50;7.63;;;3.58;;
73266;SDS011;61495;53.400;7.608;2022-11-15T16:56:22;6.03;;;3.65;;
73266;SDS011;61495;53.400;7.608;2022-11-15T16:58:50;6.60;;;3.95;;
73266;SDS011;61495;53.400;7.608;2022-11-15T17:01:17;6.80;;;3.88;;
73266;SDS011;61495;53.400;7.608;2022-11-15T17:03:44;7.40;;;3.88;;
73266;SDS011;61495;53.400;7.608;2022-11-15T17:06:10;6.93;;;3.72;;
73266;SDS011;61495;53.400;7.608;2022-11-15T17:08:37;6.32;;;3.60;;